sensor_id;sensor_type;location;lat;lon;timestamp;temperature;humidity
63875;DHT22;51595;24.180;-110.296;2022-08-25T00:01:56;36.70;85.40
63875;DHT22;51595;24.180;-110.296;2022-08-25T00:04:23;35.50;86.30
63875;DHT22;51595;24.180;-110.296;2022-08-25T00:06:50;35.20;83.00
63875;DHT22;51595;24.180;-110.296;2022-08-25T00:09:20;35.20;85.40
63875;DHT22;51595;24.180;-110.296;2022-08-25T00:11:48;35.20;86.30
63875;DHT22;51595;24.180;-110.296;2022-08-25T00:14:24;34.50;90.30
63875;DHT22;51595;24.180;-110.296;2022-08-25T00:16:51;34.00;91.00
63875;DHT22;51595;24.180;-110.296;2022-08-25T00:19:20;33.80;91.30
63875;DHT22;51595;24.180;-110.296;2022-08-25T00:21:48;33.70;91.50
63875;DHT22;51595;24.180;-110.296;2022-08-25T00:24:16;33.70;91.90
63875;DHT22;51595;24.180;-110.296;2022-08-25T00:26:45;33.60;91.40
63875;DHT22;51595;24.180;-110.296;2022-08-25T00:29:12;33.50;91.20
63875;DHT22;51595;24.180;-110.296;2022-08-25T00:31:39;33.60;90.30
63875;DHT22;51595;24.180;-110.296;2022-08-25T00:34:15;33.50;90.20
63875;DHT22;51595;24.180;-110.296;2022-08-25T00:36:42;33.50;90.60
63875;DHT22;51595;24.180;-110.296;2022-08-25T00:39:10;33.70;90.30
63875;DHT22;51595;24.180;-110.296;2022-08-25T00:41:38;33.60;89.70
63875;DHT22;51595;24.180;-110.296;2022-08-25T00:44:08;33.40;89.40
63875;DHT22;51595;24.180;-110.296;2022-08-25T00:46:53;33.40;90.30
63875;DHT22;51595;24.180;-110.296;2022-08-25T00:49:34;33.30;91.00
63875;DHT22;51595;24.180;-110.296;2022-08-25T00:52:09;33.10;91.70
63875;DHT22;51595;24.180;-110.296;2022-08-25T00:54:50;33.10;91.50
63875;DHT22;51595;24.180;-110.296;2022-08-25T00:57:22;33.10;91.00
63875;DHT22;51595;24.180;-110.296;2022-08-25T00:59:50;33.20;91.00
63875;DHT22;51595;24.180;-110.296;2022-08-25T01:02:16;33.10;90.60
63875;DHT22;51595;24.180;-110.296;2022-08-25T01:04:44;33.00;91.30
63875;DHT22;51595;24.180;-110.296;2022-08-25T01:07:11;33.00;91.20
63875;DHT22;51595;24.180;-110.296;2022-08-25T01:09:39;32.90;92.40
63875;DHT22;51595;24.180;-110.296;2022-08-25T01:12:07;32.70;93.30
63875;DHT22;51595;24.180;-110.296;2022-08-25T01:14:34;32.50;93.40
63875;DHT22;51595;24.180;-110.296;2022-08-25T01:17:01;32.40;93.40
63875;DHT22;51595;24.180;-110.296;2022-08-25T01:19:29;32.30;93.60
63875;DHT22;51595;24.180;-110.296;2022-08-25T01:21:57;32.20;93.60
63875;DHT22;51595;24.180;-110.296;2022-08-25T01:24:50;32.20;93.60
63875;DHT22;51595;24.180;-110.296;2022-08-25T01:27:19;32.40;91.90
63875;DHT22;51595;24.180;-110.296;2022-08-25T01:29:45;32.60;91.50
63875;DHT22;51595;24.180;-110.296;2022-08-25T01:32:13;32.50;93.00
63875;DHT22;51595;24.180;-110.296;2022-08-25T01:34:42;32.20;93.50
63875;DHT22;51595;24.180;-110.296;2022-08-25T01:37:10;32.00;93.40
63875;DHT22;51595;24.180;-110.296;2022-08-25T01:39:38;32.10;93.10
63875;DHT22;51595;24.180;-110.296;2022-08-25T01:44:47;32.20;93.40
63875;DHT22;51595;24.180;-110.296;2022-08-25T01:47:14;32.10;93.80
63875;DHT22;51595;24.180;-110.296;2022-08-25T01:49:40;32.00;93.30
63875;DHT22;51595;24.180;-110.296;2022-08-25T01:52:24;32.00;93.80
63875;DHT22;51595;24.180;-110.296;2022-08-25T01:54:51;31.90;93.70
63875;DHT22;51595;24.180;-110.296;2022-08-25T01:57:17;31.70;93.70
63875;DHT22;51595;24.180;-110.296;2022-08-25T01:59:44;31.60;93.80
63875;DHT22;51595;24.180;-110.296;2022-08-25T02:02:11;31.60;94.20
63875;DHT22;51595;24.180;-110.296;2022-08-25T02:04:37;31.50;94.30
63875;DHT22;51595;24.180;-110.296;2022-08-25T02:07:07;31.40;94.70
63875;DHT22;51595;24.180;-110.296;2022-08-25T02:09:35;31.40;95.00
63875;DHT22;51595;24.180;-110.296;2022-08-25T02:12:03;31.30;95.40
63875;DHT22;51595;24.180;-110.296;2022-08-25T02:14:30;31.10;96.40
63875;DHT22;51595;24.180;-110.296;2022-08-25T02:16:56;31.00;96.50
63875;DHT22;51595;24.180;-110.296;2022-08-25T02:19:24;30.90;96.80
63875;DHT22;51595;24.180;-110.296;2022-08-25T02:21:52;30.90;97.20
63875;DHT22;51595;24.180;-110.296;2022-08-25T02:24:19;30.90;97.50
63875;DHT22;51595;24.180;-110.296;2022-08-25T02:26:46;30.80;97.80
63875;DHT22;51595;24.180;-110.296;2022-08-25T02:29:13;30.70;97.80
63875;DHT22;51595;24.180;-110.296;2022-08-25T02:31:39;30.50;98.40
63875;DHT22;51595;24.180;-110.296;2022-08-25T02:34:07;30.50;98.90
63875;DHT22;51595;24.180;-110.296;2022-08-25T02:36:34;30.50;99.20
63875;DHT22;51595;24.180;-110.296;2022-08-25T02:39:01;30.50;99.40
63875;DHT22;51595;24.180;-110.296;2022-08-25T02:41:28;30.50;99.40
63875;DHT22;51595;24.180;-110.296;2022-08-25T02:43:55;30.50;99.80
63875;DHT22;51595;24.180;-110.296;2022-08-25T02:46:22;30.40;99.90
63875;DHT22;51595;24.180;-110.296;2022-08-25T02:48:50;30.40;99.90
63875;DHT22;51595;24.180;-110.296;2022-08-25T02:51:20;30.30;99.90
63875;DHT22;51595;24.180;-110.296;2022-08-25T02:53:53;30.40;99.90
63875;DHT22;51595;24.180;-110.296;2022-08-25T02:56:26;30.40;99.90
63875;DHT22;51595;24.180;-110.296;2022-08-25T02:59:05;30.20;99.90
63875;DHT22;51595;24.180;-110.296;2022-08-25T03:05:12;30.20;99.90
63875;DHT22;51595;24.180;-110.296;2022-08-25T03:07:40;30.20;99.90
63875;DHT22;51595;24.180;-110.296;2022-08-25T03:10:15;30.00;99.90
63875;DHT22;51595;24.180;-110.296;2022-08-25T03:12:49;29.90;99.90
63875;DHT22;51595;24.180;-110.296;2022-08-25T03:15:27;30.00;99.90
63875;DHT22;51595;24.180;-110.296;2022-08-25T03:17:54;29.80;99.90
63875;DHT22;51595;24.180;-110.296;2022-08-25T03:20:22;29.70;99.90
63875;DHT22;51595;24.180;-110.296;2022-08-25T03:22:50;29.70;99.90
63875;DHT22;51595;24.180;-110.296;2022-08-25T03:25:17;29.70;99.90
63875;DHT22;51595;24.180;-110.296;2022-08-25T03:28:03;29.80;99.90
63875;DHT22;51595;24.180;-110.296;2022-08-25T03:30:29;29.80;99.90
63875;DHT22;51595;24.180;-110.296;2022-08-25T03:32:56;29.70;99.90
63875;DHT22;51595;24.180;-110.296;2022-08-25T03:35:23;29.70;99.90
63875;DHT22;51595;24.180;-110.296;2022-08-25T03:37:49;29.60;99.90
63875;DHT22;51595;24.180;-110.296;2022-08-25T03:40:16;29.50;99.90
63875;DHT22;51595;24.180;-110.296;2022-08-25T03:42:44;29.60;99.90
63875;DHT22;51595;24.180;-110.296;2022-08-25T03:45:12;29.60;99.90
63875;DHT22;51595;24.180;-110.296;2022-08-25T03:47:39;29.60;99.90
63875;DHT22;51595;24.180;-110.296;2022-08-25T03:50:07;29.70;99.90
63875;DHT22;51595;24.180;-110.296;2022-08-25T03:52:35;29.70;99.90
63875;DHT22;51595;24.180;-110.296;2022-08-25T03:55:04;29.60;99.90
63875;DHT22;51595;24.180;-110.296;2022-08-25T03:57:31;29.40;99.90
63875;DHT22;51595;24.180;-110.296;2022-08-25T03:59:57;29.30;99.90
63875;DHT22;51595;24.180;-110.296;2022-08-25T04:02:23;29.20;99.90
63875;DHT22;51595;24.180;-110.296;2022-08-25T04:04:50;29.20;99.90
63875;DHT22;51595;24.180;-110.296;2022-08-25T04:07:17;29.30;99.90
63875;DHT22;51595;24.180;-110.296;2022-08-25T04:09:44;29.40;99.90
63875;DHT22;51595;24.180;-110.296;2022-08-25T04:12:11;29.50;99.90
63875;DHT22;51595;24.180;-110.296;2022-08-25T04:14:37;29.40;99.90
63875;DHT22;51595;24.180;-110.296;2022-08-25T04:17:04;29.30;99.90
63875;DHT22;51595;24.180;-110.296;2022-08-25T04:19:36;29.30;99.90
63875;DHT22;51595;24.180;-110.296;2022-08-25T04:22:03;29.20;99.90
63875;DHT22;51595;24.180;-110.296;2022-08-25T04:24:30;29.10;99.90
63875;DHT22;51595;24.180;-110.296;2022-08-25T04:26:56;29.30;99.90
63875;DHT22;51595;24.180;-110.296;2022-08-25T04:29:24;29.20;99.90
63875;DHT22;51595;24.180;-110.296;2022-08-25T04:31:51;29.30;99.90
63875;DHT22;51595;24.180;-110.296;2022-08-25T04:34:23;29.40;99.90
63875;DHT22;51595;24.180;-110.296;2022-08-25T04:36:50;29.20;99.90
63875;DHT22;51595;24.180;-110.296;2022-08-25T04:39:18;29.10;99.90
63875;DHT22;51595;24.180;-110.296;2022-08-25T04:41:49;29.00;99.90
63875;DHT22;51595;24.180;-110.296;2022-08-25T04:44:16;28.90;99.90
63875;DHT22;51595;24.180;-110.296;2022-08-25T04:46:43;28.90;99.90
63875;DHT22;51595;24.180;-110.296;2022-08-25T04:49:10;28.90;99.90
63875;DHT22;51595;24.180;-110.296;2022-08-25T04:51:38;28.80;99.90
63875;DHT22;51595;24.180;-110.296;2022-08-25T04:54:08;28.70;99.90
63875;DHT22;51595;24.180;-110.296;2022-08-25T04:56:35;28.70;99.90
63875;DHT22;51595;24.180;-110.296;2022-08-25T04:59:09;28.70;99.90
63875;DHT22;51595;24.180;-110.296;2022-08-25T05:01:37;28.70;99.90
63875;DHT22;51595;24.180;-110.296;2022-08-25T05:04:06;28.60;99.90
63875;DHT22;51595;24.180;-110.296;2022-08-25T05:06:32;28.70;99.90
63875;DHT22;51595;24.180;-110.296;2022-08-25T05:08:59;28.80;99.90
63875;DHT22;51595;24.180;-110.296;2022-08-25T05:11:26;28.90;99.90
63875;DHT22;51595;24.180;-110.296;2022-08-25T05:13:55;28.90;99.90
63875;DHT22;51595;24.180;-110.296;2022-08-25T05:16:23;28.70;99.90
63875;DHT22;51595;24.180;-110.296;2022-08-25T05:18:50;28.70;99.90
63875;DHT22;51595;24.180;-110.296;2022-08-25T05:21:21;28.70;99.90
63875;DHT22;51595;24.180;-110.296;2022-08-25T05:23:52;28.80;99.90
63875;DHT22;51595;24.180;-110.296;2022-08-25T05:26:22;28.80;99.90
63875;DHT22;51595;24.180;-110.296;2022-08-25T05:28:49;28.60;99.90
63875;DHT22;51595;24.180;-110.296;2022-08-25T05:31:17;28.60;99.90
63875;DHT22;51595;24.180;-110.296;2022-08-25T05:33:46;28.50;99.90
63875;DHT22;51595;24.180;-110.296;2022-08-25T05:36:14;28.50;99.90
63875;DHT22;51595;24.180;-110.296;2022-08-25T05:38:41;28.50;99.90
63875;DHT22;51595;24.180;-110.296;2022-08-25T05:41:10;28.40;99.90
63875;DHT22;51595;24.180;-110.296;2022-08-25T05:43:39;28.40;99.90
63875;DHT22;51595;24.180;-110.296;2022-08-25T05:46:06;28.40;99.90
63875;DHT22;51595;24.180;-110.296;2022-08-25T05:48:33;28.30;99.90
63875;DHT22;51595;24.180;-110.296;2022-08-25T05:51:02;28.20;99.90
63875;DHT22;51595;24.180;-110.296;2022-08-25T05:53:30;28.30;99.90
63875;DHT22;51595;24.180;-110.296;2022-08-25T05:55:58;28.30;99.90
63875;DHT22;51595;24.180;-110.296;2022-08-25T05:58:25;28.20;99.90
63875;DHT22;51595;24.180;-110.296;2022-08-25T06:00:53;28.20;99.90
63875;DHT22;51595;24.180;-110.296;2022-08-25T06:03:20;28.20;99.90
63875;DHT22;51595;24.180;-110.296;2022-08-25T06:05:46;28.30;99.90
63875;DHT22;51595;24.180;-110.296;2022-08-25T06:08:13;28.30;99.90
63875;DHT22;51595;24.180;-110.296;2022-08-25T06:10:41;28.40;99.90
63875;DHT22;51595;24.180;-110.296;2022-08-25T06:13:08;28.40;99.90
63875;DHT22;51595;24.180;-110.296;2022-08-25T06:15:34;28.40;99.90
63875;DHT22;51595;24.180;-110.296;2022-08-25T06:18:01;28.50;99.90
63875;DHT22;51595;24.180;-110.296;2022-08-25T06:20:29;28.50;99.90
63875;DHT22;51595;24.180;-110.296;2022-08-25T06:22:56;28.40;99.90
63875;DHT22;51595;24.180;-110.296;2022-08-25T06:25:24;28.30;99.90
63875;DHT22;51595;24.180;-110.296;2022-08-25T06:27:53;28.30;99.90
63875;DHT22;51595;24.180;-110.296;2022-08-25T06:30:22;28.10;99.90
63875;DHT22;51595;24.180;-110.296;2022-08-25T06:32:49;28.10;99.90
63875;DHT22;51595;24.180;-110.296;2022-08-25T06:35:18;28.10;99.90
63875;DHT22;51595;24.180;-110.296;2022-08-25T06:37:45;28.00;99.90
63875;DHT22;51595;24.180;-110.296;2022-08-25T06:40:14;28.00;99.90
63875;DHT22;51595;24.180;-110.296;2022-08-25T06:42:41;27.90;99.90
63875;DHT22;51595;24.180;-110.296;2022-08-25T06:45:08;27.90;99.90
63875;DHT22;51595;24.180;-110.296;2022-08-25T06:47:34;27.80;99.90
63875;DHT22;51595;24.180;-110.296;2022-08-25T06:50:01;27.80;99.90
63875;DHT22;51595;24.180;-110.296;2022-08-25T06:52:29;27.50;99.90
63875;DHT22;51595;24.180;-110.296;2022-08-25T06:54:55;27.50;99.90
63875;DHT22;51595;24.180;-110.296;2022-08-25T06:57:22;27.60;99.90
63875;DHT22;51595;24.180;-110.296;2022-08-25T06:59:48;27.60;99.90
63875;DHT22;51595;24.180;-110.296;2022-08-25T07:02:15;27.50;99.90
63875;DHT22;51595;24.180;-110.296;2022-08-25T07:04:41;27.40;99.90
63875;DHT22;51595;24.180;-110.296;2022-08-25T07:07:08;27.30;99.90
63875;DHT22;51595;24.180;-110.296;2022-08-25T07:09:34;27.40;99.90
63875;DHT22;51595;24.180;-110.296;2022-08-25T07:12:01;27.40;99.90
63875;DHT22;51595;24.180;-110.296;2022-08-25T07:14:29;27.40;99.90
63875;DHT22;51595;24.180;-110.296;2022-08-25T07:16:56;27.40;99.90
63875;DHT22;51595;24.180;-110.296;2022-08-25T07:19:22;27.30;99.90
63875;DHT22;51595;24.180;-110.296;2022-08-25T07:21:52;27.40;99.90
63875;DHT22;51595;24.180;-110.296;2022-08-25T07:24:20;27.50;99.90
63875;DHT22;51595;24.180;-110.296;2022-08-25T07:26:47;27.40;99.90
63875;DHT22;51595;24.180;-110.296;2022-08-25T07:29:17;27.40;99.90
63875;DHT22;51595;24.180;-110.296;2022-08-25T07:31:44;27.50;99.90
63875;DHT22;51595;24.180;-110.296;2022-08-25T07:34:11;27.40;99.90
63875;DHT22;51595;24.180;-110.296;2022-08-25T07:36:56;27.40;99.90
63875;DHT22;51595;24.180;-110.296;2022-08-25T07:39:24;27.40;99.90
63875;DHT22;51595;24.180;-110.296;2022-08-25T07:41:51;27.20;99.90
63875;DHT22;51595;24.180;-110.296;2022-08-25T07:44:22;27.20;99.90
63875;DHT22;51595;24.180;-110.296;2022-08-25T07:46:50;27.20;99.90
63875;DHT22;51595;24.180;-110.296;2022-08-25T07:49:17;27.10;99.90
63875;DHT22;51595;24.180;-110.296;2022-08-25T07:51:45;27.10;99.90
63875;DHT22;51595;24.180;-110.296;2022-08-25T07:54:11;27.10;99.90
63875;DHT22;51595;24.180;-110.296;2022-08-25T07:56:38;27.10;99.90
63875;DHT22;51595;24.180;-110.296;2022-08-25T07:59:07;27.20;99.90
63875;DHT22;51595;24.180;-110.296;2022-08-25T08:01:35;27.20;99.90
63875;DHT22;51595;24.180;-110.296;2022-08-25T08:04:03;27.10;99.90
63875;DHT22;51595;24.180;-110.296;2022-08-25T08:06:30;27.10;99.90
63875;DHT22;51595;24.180;-110.296;2022-08-25T08:08:58;27.10;99.90
63875;DHT22;51595;24.180;-110.296;2022-08-25T08:11:30;27.10;99.90
63875;DHT22;51595;24.180;-110.296;2022-08-25T08:14:02;27.00;99.90
63875;DHT22;51595;24.180;-110.296;2022-08-25T08:16:29;27.10;99.90
63875;DHT22;51595;24.180;-110.296;2022-08-25T08:18:57;27.10;99.90
63875;DHT22;51595;24.180;-110.296;2022-08-25T08:21:26;27.00;99.90
63875;DHT22;51595;24.180;-110.296;2022-08-25T08:23:54;27.10;99.90
63875;DHT22;51595;24.180;-110.296;2022-08-25T08:26:22;27.20;99.90
63875;DHT22;51595;24.180;-110.296;2022-08-25T08:28:50;27.20;99.90
63875;DHT22;51595;24.180;-110.296;2022-08-25T08:31:19;27.40;99.90
63875;DHT22;51595;24.180;-110.296;2022-08-25T08:33:49;27.50;99.90
63875;DHT22;51595;24.180;-110.296;2022-08-25T08:36:16;27.50;99.90
63875;DHT22;51595;24.180;-110.296;2022-08-25T08:38:44;27.40;99.90
63875;DHT22;51595;24.180;-110.296;2022-08-25T08:44:10;27.30;99.90
63875;DHT22;51595;24.180;-110.296;2022-08-25T08:46:53;27.00;99.90
63875;DHT22;51595;24.180;-110.296;2022-08-25T08:49:46;26.90;99.90
63875;DHT22;51595;24.180;-110.296;2022-08-25T08:52:17;27.00;99.90
63875;DHT22;51595;24.180;-110.296;2022-08-25T08:54:45;27.00;99.90
63875;DHT22;51595;24.180;-110.296;2022-08-25T08:57:18;27.00;99.90
63875;DHT22;51595;24.180;-110.296;2022-08-25T08:59:59;26.90;99.90
63875;DHT22;51595;24.180;-110.296;2022-08-25T09:05:20;26.90;99.90
63875;DHT22;51595;24.180;-110.296;2022-08-25T09:07:56;26.90;99.90
63875;DHT22;51595;24.180;-110.296;2022-08-25T09:10:25;26.90;99.90
63875;DHT22;51595;24.180;-110.296;2022-08-25T09:13:11;26.90;99.90
63875;DHT22;51595;24.180;-110.296;2022-08-25T09:24:27;26.90;99.90
63875;DHT22;51595;24.180;-110.296;2022-08-25T09:30:04;27.10;99.90
63875;DHT22;51595;24.180;-110.296;2022-08-25T09:32:34;27.10;99.90
63875;DHT22;51595;24.180;-110.296;2022-08-25T09:35:14;27.00;99.90
63875;DHT22;51595;24.180;-110.296;2022-08-25T09:37:42;26.90;99.90
63875;DHT22;51595;24.180;-110.296;2022-08-25T09:40:09;26.80;99.90
63875;DHT22;51595;24.180;-110.296;2022-08-25T09:42:51;26.80;99.90
63875;DHT22;51595;24.180;-110.296;2022-08-25T09:45:43;26.80;99.90
63875;DHT22;51595;24.180;-110.296;2022-08-25T09:48:26;26.80;99.90
63875;DHT22;51595;24.180;-110.296;2022-08-25T09:50:58;26.80;99.90
63875;DHT22;51595;24.180;-110.296;2022-08-25T09:53:26;26.80;99.90
63875;DHT22;51595;24.180;-110.296;2022-08-25T09:56:02;26.90;99.90
63875;DHT22;51595;24.180;-110.296;2022-08-25T09:58:31;26.90;99.90
63875;DHT22;51595;24.180;-110.296;2022-08-25T10:01:02;26.90;99.90
63875;DHT22;51595;24.180;-110.296;2022-08-25T10:03:31;26.80;99.90
63875;DHT22;51595;24.180;-110.296;2022-08-25T10:06:06;26.70;99.90
63875;DHT22;51595;24.180;-110.296;2022-08-25T10:08:37;26.70;99.90
63875;DHT22;51595;24.180;-110.296;2022-08-25T10:11:09;26.60;99.90
63875;DHT22;51595;24.180;-110.296;2022-08-25T10:13:42;26.70;99.90
63875;DHT22;51595;24.180;-110.296;2022-08-25T10:16:12;26.60;99.90
63875;DHT22;51595;24.180;-110.296;2022-08-25T10:19:09;26.50;99.90
63875;DHT22;51595;24.180;-110.296;2022-08-25T10:21:39;26.60;99.90
63875;DHT22;51595;24.180;-110.296;2022-08-25T10:24:08;26.60;99.90
63875;DHT22;51595;24.180;-110.296;2022-08-25T10:27:02;26.80;99.90
63875;DHT22;51595;24.180;-110.296;2022-08-25T10:35:12;26.80;99.90
63875;DHT22;51595;24.180;-110.296;2022-08-25T10:40:49;26.80;99.90
63875;DHT22;51595;24.180;-110.296;2022-08-25T10:49:14;26.70;99.90
63875;DHT22;51595;24.180;-110.296;2022-08-25T10:57:21;26.80;99.90
63875;DHT22;51595;24.180;-110.296;2022-08-25T11:04:56;26.80;99.90
63875;DHT22;51595;24.180;-110.296;2022-08-25T11:10:37;26.80;99.90
63875;DHT22;51595;24.180;-110.296;2022-08-25T11:13:12;26.90;99.90
63875;DHT22;51595;24.180;-110.296;2022-08-25T11:15:59;26.80;99.90
63875;DHT22;51595;24.180;-110.296;2022-08-25T11:18:27;26.90;99.90
63875;DHT22;51595;24.180;-110.296;2022-08-25T11:23:54;27.10;99.90
63875;DHT22;51595;24.180;-110.296;2022-08-25T11:26:27;27.20;99.90
63875;DHT22;51595;24.180;-110.296;2022-08-25T11:29:12;27.20;99.90
63875;DHT22;51595;24.180;-110.296;2022-08-25T11:31:44;27.30;99.90
63875;DHT22;51595;24.180;-110.296;2022-08-25T11:34:12;27.30;99.90
63875;DHT22;51595;24.180;-110.296;2022-08-25T11:36:51;27.30;99.90
63875;DHT22;51595;24.180;-110.296;2022-08-25T11:48:07;27.30;99.90
63875;DHT22;51595;24.180;-110.296;2022-08-25T11:53:41;27.20;99.90
63875;DHT22;51595;24.180;-110.296;2022-08-25T11:56:10;27.20;99.90
63875;DHT22;51595;24.180;-110.296;2022-08-25T11:58:50;27.20;99.90
63875;DHT22;51595;24.180;-110.296;2022-08-25T12:04:36;27.20;99.90
63875;DHT22;51595;24.180;-110.296;2022-08-25T12:09:32;27.40;99.90
63875;DHT22;51595;24.180;-110.296;2022-08-25T12:15:20;27.50;99.90
63875;DHT22;51595;24.180;-110.296;2022-08-25T12:18:07;27.60;99.90
63875;DHT22;51595;24.180;-110.296;2022-08-25T12:23:28;27.60;99.90
63875;DHT22;51595;24.180;-110.296;2022-08-25T12:26:12;27.60;99.90
63875;DHT22;51595;24.180;-110.296;2022-08-25T12:29:04;27.60;99.90
63875;DHT22;51595;24.180;-110.296;2022-08-25T12:31:45;27.60;99.90
63875;DHT22;51595;24.180;-110.296;2022-08-25T12:37:18;27.50;99.90
63875;DHT22;51595;24.180;-110.296;2022-08-25T12:40:00;27.40;99.90
63875;DHT22;51595;24.180;-110.296;2022-08-25T12:45:31;27.30;99.90
63875;DHT22;51595;24.180;-110.296;2022-08-25T12:56:26;27.40;99.90
63875;DHT22;51595;24.180;-110.296;2022-08-25T13:05:04;27.50;99.90
63875;DHT22;51595;24.180;-110.296;2022-08-25T13:10:45;27.60;99.90
63875;DHT22;51595;24.180;-110.296;2022-08-25T13:16:07;27.70;99.90
63875;DHT22;51595;24.180;-110.296;2022-08-25T13:18:39;27.80;99.90
63875;DHT22;51595;24.180;-110.296;2022-08-25T13:23:58;27.90;99.90
63875;DHT22;51595;24.180;-110.296;2022-08-25T13:26:45;28.00;99.90
63875;DHT22;51595;24.180;-110.296;2022-08-25T13:29:29;28.00;99.90
63875;DHT22;51595;24.180;-110.296;2022-08-25T13:34:27;28.20;99.90
63875;DHT22;51595;24.180;-110.296;2022-08-25T13:36:55;28.30;99.90
63875;DHT22;51595;24.180;-110.296;2022-08-25T13:39:40;28.40;99.90
63875;DHT22;51595;24.180;-110.296;2022-08-25T13:42:14;28.50;99.90
63875;DHT22;51595;24.180;-110.296;2022-08-25T13:44:41;28.50;99.90
63875;DHT22;51595;24.180;-110.296;2022-08-25T13:47:14;28.60;99.90
63875;DHT22;51595;24.180;-110.296;2022-08-25T13:49:43;28.60;99.90
63875;DHT22;51595;24.180;-110.296;2022-08-25T13:52:31;28.70;99.60
63875;DHT22;51595;24.180;-110.296;2022-08-25T13:54:59;28.90;99.20
63875;DHT22;51595;24.180;-110.296;2022-08-25T13:57:29;29.20;98.90
63875;DHT22;51595;24.180;-110.296;2022-08-25T14:00:08;29.30;98.50
63875;DHT22;51595;24.180;-110.296;2022-08-25T14:02:50;29.50;97.90
63875;DHT22;51595;24.180;-110.296;2022-08-25T14:06:02;29.60;97.60
63875;DHT22;51595;24.180;-110.296;2022-08-25T14:08:33;29.90;97.00
63875;DHT22;51595;24.180;-110.296;2022-08-25T14:11:28;30.00;97.30
63875;DHT22;51595;24.180;-110.296;2022-08-25T14:19:29;30.20;95.30
63875;DHT22;51595;24.180;-110.296;2022-08-25T14:21:57;30.20;95.10
63875;DHT22;51595;24.180;-110.296;2022-08-25T14:24:32;30.30;94.60
63875;DHT22;51595;24.180;-110.296;2022-08-25T14:26:59;30.40;94.30
63875;DHT22;51595;24.180;-110.296;2022-08-25T14:29:27;30.50;93.60
63875;DHT22;51595;24.180;-110.296;2022-08-25T14:31:54;30.50;93.40
63875;DHT22;51595;24.180;-110.296;2022-08-25T14:34:28;30.40;93.30
63875;DHT22;51595;24.180;-110.296;2022-08-25T14:36:55;30.40;93.20
63875;DHT22;51595;24.180;-110.296;2022-08-25T14:39:25;30.30;93.10
63875;DHT22;51595;24.180;-110.296;2022-08-25T14:41:51;30.30;93.00
63875;DHT22;51595;24.180;-110.296;2022-08-25T14:44:19;30.50;92.50
63875;DHT22;51595;24.180;-110.296;2022-08-25T14:46:55;30.50;92.20
63875;DHT22;51595;24.180;-110.296;2022-08-25T14:49:26;30.50;92.10
63875;DHT22;51595;24.180;-110.296;2022-08-25T14:51:56;30.60;91.90
63875;DHT22;51595;24.180;-110.296;2022-08-25T14:54:25;30.60;91.30
63875;DHT22;51595;24.180;-110.296;2022-08-25T14:56:52;30.60;90.50
63875;DHT22;51595;24.180;-110.296;2022-08-25T14:59:19;30.80;90.30
63875;DHT22;51595;24.180;-110.296;2022-08-25T15:01:46;31.20;90.10
63875;DHT22;51595;24.180;-110.296;2022-08-25T15:04:16;31.00;89.10
63875;DHT22;51595;24.180;-110.296;2022-08-25T15:06:44;31.00;89.10
63875;DHT22;51595;24.180;-110.296;2022-08-25T15:09:14;31.10;89.40
63875;DHT22;51595;24.180;-110.296;2022-08-25T15:11:47;31.20;88.10
63875;DHT22;51595;24.180;-110.296;2022-08-25T15:14:18;31.30;88.50
63875;DHT22;51595;24.180;-110.296;2022-08-25T15:16:54;31.60;88.20
63875;DHT22;51595;24.180;-110.296;2022-08-25T15:19:25;31.80;86.80
63875;DHT22;51595;24.180;-110.296;2022-08-25T15:21:52;31.70;86.80
63875;DHT22;51595;24.180;-110.296;2022-08-25T15:24:20;31.80;86.80
63875;DHT22;51595;24.180;-110.296;2022-08-25T15:27:03;32.30;85.60
63875;DHT22;51595;24.180;-110.296;2022-08-25T15:29:31;32.70;84.60
63875;DHT22;51595;24.180;-110.296;2022-08-25T15:32:03;32.70;85.20
63875;DHT22;51595;24.180;-110.296;2022-08-25T15:34:32;32.70;83.60
63875;DHT22;51595;24.180;-110.296;2022-08-25T15:37:09;32.70;83.50
63875;DHT22;51595;24.180;-110.296;2022-08-25T15:39:36;32.80;83.60
63875;DHT22;51595;24.180;-110.296;2022-08-25T15:42:04;33.00;82.10
63875;DHT22;51595;24.180;-110.296;2022-08-25T15:44:30;33.20;81.90
63875;DHT22;51595;24.180;-110.296;2022-08-25T15:46:58;33.40;81.80
63875;DHT22;51595;24.180;-110.296;2022-08-25T15:49:25;33.80;81.30
63875;DHT22;51595;24.180;-110.296;2022-08-25T15:51:52;34.00;79.70
63875;DHT22;51595;24.180;-110.296;2022-08-25T15:54:20;34.30;79.10
63875;DHT22;51595;24.180;-110.296;2022-08-25T15:56:47;34.70;78.40
63875;DHT22;51595;24.180;-110.296;2022-08-25T15:59:13;35.10;76.70
63875;DHT22;51595;24.180;-110.296;2022-08-25T16:01:40;35.20;76.00
63875;DHT22;51595;24.180;-110.296;2022-08-25T16:04:08;35.20;75.50
63875;DHT22;51595;24.180;-110.296;2022-08-25T16:06:35;35.50;74.80
63875;DHT22;51595;24.180;-110.296;2022-08-25T16:09:03;35.60;74.50
63875;DHT22;51595;24.180;-110.296;2022-08-25T16:11:31;35.20;73.80
63875;DHT22;51595;24.180;-110.296;2022-08-25T16:14:00;35.30;73.60
63875;DHT22;51595;24.180;-110.296;2022-08-25T16:16:29;35.60;74.00
63875;DHT22;51595;24.180;-110.296;2022-08-25T16:18:56;35.80;72.80
63875;DHT22;51595;24.180;-110.296;2022-08-25T16:21:27;35.20;72.70
63875;DHT22;51595;24.180;-110.296;2022-08-25T16:23:56;34.90;73.60
63875;DHT22;51595;24.180;-110.296;2022-08-25T16:26:23;35.10;74.40
63875;DHT22;51595;24.180;-110.296;2022-08-25T16:28:50;35.40;73.30
63875;DHT22;51595;24.180;-110.296;2022-08-25T16:31:17;35.70;72.50
63875;DHT22;51595;24.180;-110.296;2022-08-25T16:33:44;35.80;72.50
63875;DHT22;51595;24.180;-110.296;2022-08-25T16:36:14;36.20;71.30
63875;DHT22;51595;24.180;-110.296;2022-08-25T16:38:42;36.40;71.10
63875;DHT22;51595;24.180;-110.296;2022-08-25T16:41:11;36.60;70.70
63875;DHT22;51595;24.180;-110.296;2022-08-25T16:43:37;36.50;70.40
63875;DHT22;51595;24.180;-110.296;2022-08-25T16:46:06;36.40;70.40
63875;DHT22;51595;24.180;-110.296;2022-08-25T16:48:35;35.50;71.80
63875;DHT22;51595;24.180;-110.296;2022-08-25T16:51:09;35.60;72.10
63875;DHT22;51595;24.180;-110.296;2022-08-25T16:53:36;36.20;71.60
63875;DHT22;51595;24.180;-110.296;2022-08-25T16:56:21;36.50;70.50
63875;DHT22;51595;24.180;-110.296;2022-08-25T16:58:56;36.90;70.20
63875;DHT22;51595;24.180;-110.296;2022-08-25T17:01:26;37.10;69.50
63875;DHT22;51595;24.180;-110.296;2022-08-25T17:03:54;37.10;69.30